createdAt,value
2022-10-05T02:58:17.771Z,10.67
2022-10-05T03:28:28.024Z,10.31
2022-10-05T03:58:37.120Z,10.60
2022-10-05T04:28:48.832Z,10.49
2022-10-05T04:59:11.348Z,9.99
2022-10-05T05:29:19.660Z,10.08
2022-10-05T05:59:27.545Z,10.49
2022-10-05T06:29:44.632Z,10.78
2022-10-05T06:59:51.831Z,11.50
2022-10-05T07:30:00.995Z,12.42
2022-10-05T08:00:07.395Z,13.82
2022-10-05T08:30:12.691Z,14.81
2022-10-05T09:00:20.098Z,14.71
2022-10-05T09:30:44.985Z,17.65
2022-10-05T10:01:10.010Z,21.73
2022-10-05T10:31:32.924Z,19.93
2022-10-05T11:01:41.317Z,24.18
2022-10-05T11:32:05.299Z,25.65
2022-10-05T12:02:27.212Z,25.52
2022-10-05T12:32:35.464Z,25.90
2022-10-05T13:02:43.249Z,26.92
2022-10-05T13:32:48.750Z,25.88
2022-10-05T14:02:54.397Z,26.17
2022-10-05T14:33:00.559Z,23.04
2022-10-05T15:03:18.766Z,22.44
2022-10-05T15:33:28.690Z,23.11
2022-10-05T16:03:41.412Z,18.72
2022-10-05T16:33:56.365Z,18.01
2022-10-05T17:04:10.157Z,17.61
2022-10-05T17:34:34.244Z,17.43
2022-10-05T18:04:42.326Z,17.15
2022-10-05T18:34:50.780Z,17.17
2022-10-05T19:05:23.577Z,17.00
2022-10-05T19:35:34.623Z,17.02
2022-10-05T20:05:38.790Z,17.05
2022-10-05T20:35:42.921Z,16.78
2022-10-05T21:05:47.441Z,16.33
2022-10-05T21:35:51.594Z,16.39
2022-10-05T22:05:55.855Z,16.40
2022-10-05T22:36:00.513Z,16.17
2022-10-05T23:06:06.314Z,16.11
2022-10-05T23:36:13.370Z,16.11
